sensor_id;sensor_type;location;lat;lon;timestamp;pressure;altitude;pressure_sealevel;temperature;humidity
6851;BME280;3464;42.728;23.296;2023-02-02T00:01:25;95331.50;;;11.46;43.52
6851;BME280;3464;42.728;23.296;2023-02-02T00:03:52;95333.88;;;11.27;43.67
6851;BME280;3464;42.728;23.296;2023-02-02T00:06:20;95320.70;;;11.66;43.15
6851;BME280;3464;42.728;23.296;2023-02-02T00:08:46;95321.60;;;11.74;42.87
6851;BME280;3464;42.728;23.296;2023-02-02T00:11:13;95328.47;;;12.11;42.42
6851;BME280;3464;42.728;23.296;2023-02-02T00:13:42;95323.50;;;11.47;42.91
6851;BME280;3464;42.728;23.296;2023-02-02T00:19:01;95330.78;;;11.06;43.47
6851;BME280;3464;42.728;23.296;2023-02-02T00:21:38;95324.48;;;11.03;43.52
6851;BME280;3464;42.728;23.296;2023-02-02T00:24:17;95334.70;;;10.73;43.95
6851;BME280;3464;42.728;23.296;2023-02-02T00:26:57;95333.59;;;10.90;43.74
6851;BME280;3464;42.728;23.296;2023-02-02T00:29:28;95338.06;;;10.72;43.98
6851;BME280;3464;42.728;23.296;2023-02-02T00:31:54;95343.48;;;10.70;44.00
6851;BME280;3464;42.728;23.296;2023-02-02T00:34:21;95342.09;;;11.06;43.69
6851;BME280;3464;42.728;23.296;2023-02-02T00:36:48;95338.93;;;11.28;43.42
6851;BME280;3464;42.728;23.296;2023-02-02T00:39:18;95340.93;;;11.16;43.64
6851;BME280;3464;42.728;23.296;2023-02-02T00:41:44;95339.41;;;10.83;44.12
6851;BME280;3464;42.728;23.296;2023-02-02T00:44:13;95343.98;;;10.78;44.62
6851;BME280;3464;42.728;23.296;2023-02-02T00:46:45;95342.17;;;11.12;44.08
6851;BME280;3464;42.728;23.296;2023-02-02T00:49:12;95342.34;;;11.35;43.65
6851;BME280;3464;42.728;23.296;2023-02-02T00:51:38;95341.83;;;11.25;43.78
6851;BME280;3464;42.728;23.296;2023-02-02T00:54:05;95348.45;;;11.09;44.01
6851;BME280;3464;42.728;23.296;2023-02-02T00:56:33;95331.48;;;11.45;43.72
6851;BME280;3464;42.728;23.296;2023-02-02T00:58:59;95324.54;;;11.73;43.26
6851;BME280;3464;42.728;23.296;2023-02-02T01:01:26;95325.78;;;11.70;43.13
6851;BME280;3464;42.728;23.296;2023-02-02T01:03:57;95322.92;;;11.92;42.88
6851;BME280;3464;42.728;23.296;2023-02-02T01:06:30;95324.61;;;11.93;42.80
6851;BME280;3464;42.728;23.296;2023-02-02T01:08:58;95323.36;;;11.94;42.73
6851;BME280;3464;42.728;23.296;2023-02-02T01:11:25;95319.88;;;11.64;43.24
6851;BME280;3464;42.728;23.296;2023-02-02T01:14:09;95314.78;;;11.61;43.30
6851;BME280;3464;42.728;23.296;2023-02-02T01:16:38;95320.48;;;11.34;43.94
6851;BME280;3464;42.728;23.296;2023-02-02T01:19:12;95319.87;;;11.07;44.25
6851;BME280;3464;42.728;23.296;2023-02-02T01:21:39;95320.89;;;10.78;45.24
6851;BME280;3464;42.728;23.296;2023-02-02T01:24:06;95329.58;;;10.20;46.66
6851;BME280;3464;42.728;23.296;2023-02-02T01:26:33;95320.46;;;9.96;47.46
6851;BME280;3464;42.728;23.296;2023-02-02T01:29:00;95321.39;;;10.05;47.21
6851;BME280;3464;42.728;23.296;2023-02-02T01:31:31;95313.75;;;9.95;47.49
6851;BME280;3464;42.728;23.296;2023-02-02T01:34:00;95321.56;;;9.84;47.53
6851;BME280;3464;42.728;23.296;2023-02-02T01:36:26;95323.37;;;9.96;47.67
6851;BME280;3464;42.728;23.296;2023-02-02T01:38:53;95320.12;;;10.04;47.59
6851;BME280;3464;42.728;23.296;2023-02-02T01:41:21;95313.53;;;10.10;47.75
6851;BME280;3464;42.728;23.296;2023-02-02T01:43:50;95309.20;;;10.03;47.96
6851;BME280;3464;42.728;23.296;2023-02-02T01:46:18;95306.77;;;9.73;49.16
6851;BME280;3464;42.728;23.296;2023-02-02T01:51:24;95302.79;;;9.56;49.64
6851;BME280;3464;42.728;23.296;2023-02-02T01:53:51;95296.88;;;9.85;49.33
6851;BME280;3464;42.728;23.296;2023-02-02T01:56:24;95294.42;;;9.92;49.43
6851;BME280;3464;42.728;23.296;2023-02-02T01:58:52;95287.12;;;9.44;50.70
6851;BME280;3464;42.728;23.296;2023-02-02T02:01:21;95288.66;;;9.34;51.65
6851;BME280;3464;42.728;23.296;2023-02-02T02:03:49;95280.16;;;9.90;50.59
6851;BME280;3464;42.728;23.296;2023-02-02T02:06:16;95282.09;;;10.11;50.23
6851;BME280;3464;42.728;23.296;2023-02-02T02:08:55;95278.48;;;9.92;50.60
6851;BME280;3464;42.728;23.296;2023-02-02T02:11:21;95291.23;;;9.07;52.61
6851;BME280;3464;42.728;23.296;2023-02-02T02:13:48;95293.94;;;9.51;52.07
6851;BME280;3464;42.728;23.296;2023-02-02T02:16:26;95296.23;;;9.37;52.30
6851;BME280;3464;42.728;23.296;2023-02-02T02:18:58;95294.88;;;9.61;51.50
6851;BME280;3464;42.728;23.296;2023-02-02T02:21:25;95296.38;;;9.48;52.10
6851;BME280;3464;42.728;23.296;2023-02-02T02:24:05;95301.36;;;9.13;52.63
6851;BME280;3464;42.728;23.296;2023-02-02T02:27:27;95297.36;;;8.99;53.04
6851;BME280;3464;42.728;23.296;2023-02-02T02:30:12;95300.67;;;8.69;53.55
6851;BME280;3464;42.728;23.296;2023-02-02T02:33:06;95306.48;;;8.93;53.11
6851;BME280;3464;42.728;23.296;2023-02-02T02:35:41;95299.19;;;8.82;53.57
6851;BME280;3464;42.728;23.296;2023-02-02T02:38:10;95302.19;;;9.14;52.79
6851;BME280;3464;42.728;23.296;2023-02-02T02:40:39;95304.32;;;8.89;52.85
6851;BME280;3464;42.728;23.296;2023-02-02T02:43:11;95303.05;;;8.88;52.89
6851;BME280;3464;42.728;23.296;2023-02-02T02:45:43;95300.44;;;8.81;53.03
6851;BME280;3464;42.728;23.296;2023-02-02T02:48:10;95297.64;;;8.90;52.30
6851;BME280;3464;42.728;23.296;2023-02-02T02:50:40;95297.20;;;8.87;52.57
6851;BME280;3464;42.728;23.296;2023-02-02T02:53:10;95287.45;;;9.08;52.10
6851;BME280;3464;42.728;23.296;2023-02-02T02:55:39;95292.74;;;9.27;51.78
6851;BME280;3464;42.728;23.296;2023-02-02T02:58:06;95297.05;;;9.06;52.17
6851;BME280;3464;42.728;23.296;2023-02-02T03:03:21;95287.45;;;9.08;52.02
6851;BME280;3464;42.728;23.296;2023-02-02T03:05:54;95286.90;;;8.97;52.10
6851;BME280;3464;42.728;23.296;2023-02-02T03:08:30;95287.93;;;9.11;51.72
6851;BME280;3464;42.728;23.296;2023-02-02T03:10:56;95293.89;;;9.19;51.65
6851;BME280;3464;42.728;23.296;2023-02-02T03:13:23;95294.86;;;8.99;52.07
6851;BME280;3464;42.728;23.296;2023-02-02T03:15:51;95291.34;;;8.89;52.27
6851;BME280;3464;42.728;23.296;2023-02-02T03:18:18;95282.13;;;9.15;51.82
6851;BME280;3464;42.728;23.296;2023-02-02T03:20:44;95285.07;;;8.89;52.30
6851;BME280;3464;42.728;23.296;2023-02-02T03:23:11;95291.61;;;8.78;52.53
6851;BME280;3464;42.728;23.296;2023-02-02T03:25:38;95291.75;;;8.88;52.41
6851;BME280;3464;42.728;23.296;2023-02-02T03:28:05;95287.89;;;8.82;52.15
6851;BME280;3464;42.728;23.296;2023-02-02T03:30:32;95292.06;;;8.80;52.28
6851;BME280;3464;42.728;23.296;2023-02-02T03:33:05;95294.34;;;8.66;52.40
6851;BME280;3464;42.728;23.296;2023-02-02T03:35:32;95288.27;;;8.53;52.71
6851;BME280;3464;42.728;23.296;2023-02-02T03:38:01;95294.48;;;8.25;52.97
6851;BME280;3464;42.728;23.296;2023-02-02T03:43:21;95297.41;;;8.05;53.65
6851;BME280;3464;42.728;23.296;2023-02-02T03:45:53;95291.80;;;8.18;53.28
6851;BME280;3464;42.728;23.296;2023-02-02T03:48:15;95306.02;;;8.40;52.51
6851;BME280;3464;42.728;23.296;2023-02-02T03:50:42;95301.72;;;8.12;53.13
6851;BME280;3464;42.728;23.296;2023-02-02T03:53:09;95297.73;;;8.00;53.11
6851;BME280;3464;42.728;23.296;2023-02-02T03:55:37;95311.27;;;8.28;52.88
6851;BME280;3464;42.728;23.296;2023-02-02T03:58:06;95308.67;;;8.24;52.58
6851;BME280;3464;42.728;23.296;2023-02-02T04:00:33;95311.94;;;8.44;52.10
6851;BME280;3464;42.728;23.296;2023-02-02T04:03:04;95310.50;;;8.12;52.83
6851;BME280;3464;42.728;23.296;2023-02-02T04:05:31;95312.06;;;8.27;52.41
6851;BME280;3464;42.728;23.296;2023-02-02T04:07:57;95310.63;;;8.41;52.26
6851;BME280;3464;42.728;23.296;2023-02-02T04:10:26;95308.67;;;8.25;52.77
6851;BME280;3464;42.728;23.296;2023-02-02T04:12:53;95310.31;;;8.46;52.33
6851;BME280;3464;42.728;23.296;2023-02-02T04:15:21;95312.58;;;8.32;52.66
6851;BME280;3464;42.728;23.296;2023-02-02T04:17:49;95319.09;;;8.03;53.36
6851;BME280;3464;42.728;23.296;2023-02-02T04:20:17;95316.84;;;7.72;54.01
6851;BME280;3464;42.728;23.296;2023-02-02T04:22:47;95315.49;;;7.89;53.88
6851;BME280;3464;42.728;23.296;2023-02-02T04:25:16;95314.58;;;7.85;54.00
6851;BME280;3464;42.728;23.296;2023-02-02T04:27:43;95311.20;;;7.62;54.53
6851;BME280;3464;42.728;23.296;2023-02-02T04:30:10;95313.53;;;7.96;54.06
6851;BME280;3464;42.728;23.296;2023-02-02T04:32:37;95312.00;;;8.04;53.76
6851;BME280;3464;42.728;23.296;2023-02-02T04:35:05;95301.06;;;7.99;53.83
6851;BME280;3464;42.728;23.296;2023-02-02T04:37:32;95301.09;;;8.01;53.66
6851;BME280;3464;42.728;23.296;2023-02-02T04:40:03;95308.08;;;8.16;53.26
6851;BME280;3464;42.728;23.296;2023-02-02T04:42:31;95320.89;;;8.10;53.62
6851;BME280;3464;42.728;23.296;2023-02-02T04:44:59;95321.58;;;8.00;53.58
6851;BME280;3464;42.728;23.296;2023-02-02T04:47:29;95323.22;;;7.79;54.05
6851;BME280;3464;42.728;23.296;2023-02-02T04:49:58;95323.10;;;7.93;54.16
6851;BME280;3464;42.728;23.296;2023-02-02T04:52:27;95321.94;;;7.78;54.00
6851;BME280;3464;42.728;23.296;2023-02-02T04:54:54;95325.08;;;7.68;54.08
6851;BME280;3464;42.728;23.296;2023-02-02T04:57:23;95323.19;;;7.98;53.55
6851;BME280;3464;42.728;23.296;2023-02-02T04:59:50;95330.19;;;7.73;54.04
6851;BME280;3464;42.728;23.296;2023-02-02T05:02:20;95330.46;;;7.45;54.34
6851;BME280;3464;42.728;23.296;2023-02-02T05:04:47;95329.97;;;7.61;54.21
6851;BME280;3464;42.728;23.296;2023-02-02T05:07:15;95326.93;;;7.36;54.58
6851;BME280;3464;42.728;23.296;2023-02-02T05:09:42;95324.42;;;7.37;54.39
6851;BME280;3464;42.728;23.296;2023-02-02T05:12:11;95332.89;;;7.05;55.04
6851;BME280;3464;42.728;23.296;2023-02-02T05:14:57;95329.30;;;7.51;54.35
6851;BME280;3464;42.728;23.296;2023-02-02T05:17:50;95322.22;;;7.31;54.53
6851;BME280;3464;42.728;23.296;2023-02-02T05:23:31;95314.15;;;7.43;53.86
6851;BME280;3464;42.728;23.296;2023-02-02T05:26:24;95318.20;;;7.38;54.25
6851;BME280;3464;42.728;23.296;2023-02-02T05:34:21;95331.80;;;7.31;54.46
6851;BME280;3464;42.728;23.296;2023-02-02T05:36:50;95335.27;;;7.36;54.42
6851;BME280;3464;42.728;23.296;2023-02-02T05:39:17;95332.04;;;7.41;54.16
6851;BME280;3464;42.728;23.296;2023-02-02T05:41:45;95328.22;;;7.38;53.90
6851;BME280;3464;42.728;23.296;2023-02-02T05:44:12;95335.25;;;7.16;54.13
6851;BME280;3464;42.728;23.296;2023-02-02T05:46:40;95334.20;;;7.26;54.16
6851;BME280;3464;42.728;23.296;2023-02-02T05:49:09;95333.33;;;7.62;53.67
6851;BME280;3464;42.728;23.296;2023-02-02T05:51:38;95333.95;;;7.52;53.75
6851;BME280;3464;42.728;23.296;2023-02-02T05:54:06;95345.11;;;7.88;53.31
6851;BME280;3464;42.728;23.296;2023-02-02T05:56:41;95344.19;;;8.04;52.57
6851;BME280;3464;42.728;23.296;2023-02-02T05:59:21;95341.96;;;7.96;53.07
6851;BME280;3464;42.728;23.296;2023-02-02T06:05:11;95333.67;;;8.00;52.93
6851;BME280;3464;42.728;23.296;2023-02-02T06:07:39;95337.08;;;8.24;52.64
6851;BME280;3464;42.728;23.296;2023-02-02T06:10:06;95343.80;;;7.84;52.98
6851;BME280;3464;42.728;23.296;2023-02-02T06:12:45;95339.86;;;8.62;51.69
6851;BME280;3464;42.728;23.296;2023-02-02T06:15:13;95334.11;;;8.01;52.41
6851;BME280;3464;42.728;23.296;2023-02-02T06:18:01;95343.27;;;8.21;52.10
6851;BME280;3464;42.728;23.296;2023-02-02T06:20:35;95353.39;;;8.04;52.48
6851;BME280;3464;42.728;23.296;2023-02-02T06:23:05;95347.70;;;7.91;52.70
6851;BME280;3464;42.728;23.296;2023-02-02T06:25:32;95357.60;;;8.26;51.99
6851;BME280;3464;42.728;23.296;2023-02-02T06:28:01;95361.48;;;8.33;52.36
6851;BME280;3464;42.728;23.296;2023-02-02T06:30:30;95365.00;;;8.65;51.70
6851;BME280;3464;42.728;23.296;2023-02-02T06:33:02;95358.13;;;9.03;51.23
6851;BME280;3464;42.728;23.296;2023-02-02T06:35:33;95363.48;;;9.00;50.57
6851;BME280;3464;42.728;23.296;2023-02-02T06:38:00;95372.50;;;8.64;51.65
6851;BME280;3464;42.728;23.296;2023-02-02T06:40:30;95376.05;;;8.09;52.69
6851;BME280;3464;42.728;23.296;2023-02-02T06:43:03;95370.77;;;8.38;52.05
6851;BME280;3464;42.728;23.296;2023-02-02T06:45:32;95361.28;;;8.45;52.16
6851;BME280;3464;42.728;23.296;2023-02-02T06:48:03;95366.27;;;9.16;50.98
6851;BME280;3464;42.728;23.296;2023-02-02T06:50:36;95363.09;;;9.57;49.57
6851;BME280;3464;42.728;23.296;2023-02-02T06:53:04;95373.66;;;9.63;49.49
6851;BME280;3464;42.728;23.296;2023-02-02T06:55:41;95373.07;;;10.13;48.76
6851;BME280;3464;42.728;23.296;2023-02-02T06:58:14;95376.95;;;9.90;48.87
6851;BME280;3464;42.728;23.296;2023-02-02T07:00:54;95377.35;;;9.90;49.03
6851;BME280;3464;42.728;23.296;2023-02-02T07:03:29;95377.17;;;10.43;48.03
6851;BME280;3464;42.728;23.296;2023-02-02T07:08:49;95359.80;;;11.11;47.19
6851;BME280;3464;42.728;23.296;2023-02-02T07:11:19;95368.19;;;11.11;46.72
6851;BME280;3464;42.728;23.296;2023-02-02T07:13:53;95370.63;;;10.57;47.53
6851;BME280;3464;42.728;23.296;2023-02-02T07:16:20;95373.75;;;11.23;46.93
6851;BME280;3464;42.728;23.296;2023-02-02T07:18:46;95365.14;;;10.95;47.27
6851;BME280;3464;42.728;23.296;2023-02-02T07:21:31;95370.77;;;11.20;47.04
6851;BME280;3464;42.728;23.296;2023-02-02T07:24:17;95375.88;;;10.79;47.46
6851;BME280;3464;42.728;23.296;2023-02-02T07:33:23;95394.19;;;10.65;48.35
6851;BME280;3464;42.728;23.296;2023-02-02T07:35:52;95383.73;;;10.64;47.89
6851;BME280;3464;42.728;23.296;2023-02-02T07:38:24;95382.42;;;11.04;47.55
6851;BME280;3464;42.728;23.296;2023-02-02T07:40:51;95380.95;;;11.30;46.54
6851;BME280;3464;42.728;23.296;2023-02-02T07:43:18;95376.60;;;11.69;46.30
6851;BME280;3464;42.728;23.296;2023-02-02T07:45:46;95368.29;;;11.25;46.50
6851;BME280;3464;42.728;23.296;2023-02-02T07:48:13;95365.22;;;11.09;46.87
6851;BME280;3464;42.728;23.296;2023-02-02T07:50:41;95362.44;;;10.78;47.12
6851;BME280;3464;42.728;23.296;2023-02-02T07:53:09;95354.48;;;11.32;46.87
6851;BME280;3464;42.728;23.296;2023-02-02T07:55:38;95353.92;;;11.72;46.20
6851;BME280;3464;42.728;23.296;2023-02-02T07:58:08;95357.70;;;11.72;45.93
6851;BME280;3464;42.728;23.296;2023-02-02T08:00:35;95350.98;;;11.69;45.91
6851;BME280;3464;42.728;23.296;2023-02-02T08:03:03;95341.48;;;12.06;45.24
6851;BME280;3464;42.728;23.296;2023-02-02T08:05:38;95349.22;;;12.60;44.90
6851;BME280;3464;42.728;23.296;2023-02-02T08:08:06;95336.26;;;13.26;44.09
6851;BME280;3464;42.728;23.296;2023-02-02T08:10:37;95336.66;;;13.38;43.17
6851;BME280;3464;42.728;23.296;2023-02-02T08:13:10;95333.92;;;14.15;42.28
6851;BME280;3464;42.728;23.296;2023-02-02T08:18:34;95325.50;;;14.11;41.61
6851;BME280;3464;42.728;23.296;2023-02-02T08:21:31;95330.80;;;13.22;41.96
6851;BME280;3464;42.728;23.296;2023-02-02T08:27:04;95326.84;;;13.94;41.54
6851;BME280;3464;42.728;23.296;2023-02-02T08:36:45;95327.66;;;12.19;43.72
6851;BME280;3464;42.728;23.296;2023-02-02T08:39:24;95324.71;;;12.15;43.95
6851;BME280;3464;42.728;23.296;2023-02-02T08:42:07;95309.69;;;13.39;42.38
6851;BME280;3464;42.728;23.296;2023-02-02T09:07:37;95284.81;;;15.10;39.46
6851;BME280;3464;42.728;23.296;2023-02-02T09:10:04;95274.43;;;15.37;38.81
6851;BME280;3464;42.728;23.296;2023-02-02T09:12:33;95276.41;;;15.50;37.92
6851;BME280;3464;42.728;23.296;2023-02-02T09:15:07;95273.41;;;15.94;37.94
6851;BME280;3464;42.728;23.296;2023-02-02T09:17:45;95279.12;;;16.09;37.03
6851;BME280;3464;42.728;23.296;2023-02-02T09:56:43;95246.29;;;15.97;36.81
6851;BME280;3464;42.728;23.296;2023-02-02T10:06:02;95228.56;;;17.56;35.21
6851;BME280;3464;42.728;23.296;2023-02-02T10:11:52;95220.64;;;17.48;35.26
6851;BME280;3464;42.728;23.296;2023-02-02T10:14:25;95210.41;;;17.51;35.27
6851;BME280;3464;42.728;23.296;2023-02-02T10:17:02;95209.25;;;18.27;34.48
6851;BME280;3464;42.728;23.296;2023-02-02T10:29:02;95188.61;;;18.76;32.96
6851;BME280;3464;42.728;23.296;2023-02-02T10:31:42;95188.70;;;18.36;33.79
6851;BME280;3464;42.728;23.296;2023-02-02T10:34:27;95180.99;;;18.57;33.48
6851;BME280;3464;42.728;23.296;2023-02-02T10:36:59;95177.28;;;19.20;32.60
6851;BME280;3464;42.728;23.296;2023-02-02T10:39:25;95169.27;;;17.72;34.21
6851;BME280;3464;42.728;23.296;2023-02-02T10:41:58;95155.70;;;18.49;33.40
6851;BME280;3464;42.728;23.296;2023-02-02T10:44:36;95148.58;;;19.29;32.79
6851;BME280;3464;42.728;23.296;2023-02-02T10:47:20;95145.89;;;18.68;32.96
6851;BME280;3464;42.728;23.296;2023-02-02T10:49:43;95136.12;;;19.34;32.64
6851;BME280;3464;42.728;23.296;2023-02-02T10:52:14;95140.24;;;18.89;32.79
6851;BME280;3464;42.728;23.296;2023-02-02T10:55:04;95129.06;;;18.78;33.43
6851;BME280;3464;42.728;23.296;2023-02-02T10:57:41;95131.13;;;18.08;33.23
6851;BME280;3464;42.728;23.296;2023-02-02T11:00:07;95133.20;;;18.82;32.90
6851;BME280;3464;42.728;23.296;2023-02-02T11:02:31;95126.17;;;19.07;32.64
6851;BME280;3464;42.728;23.296;2023-02-02T11:04:57;95118.42;;;18.61;32.59
6851;BME280;3464;42.728;23.296;2023-02-02T11:07:32;95114.68;;;18.23;33.15
6851;BME280;3464;42.728;23.296;2023-02-02T11:10:04;95117.55;;;18.27;32.95
6851;BME280;3464;42.728;23.296;2023-02-02T11:12:34;95098.61;;;18.37;32.57
6851;BME280;3464;42.728;23.296;2023-02-02T11:15:02;95102.33;;;18.24;32.95
6851;BME280;3464;42.728;23.296;2023-02-02T11:17:29;95100.56;;;17.90;33.43
6851;BME280;3464;42.728;23.296;2023-02-02T11:19:55;95102.88;;;18.88;32.47
6851;BME280;3464;42.728;23.296;2023-02-02T11:22:32;95102.80;;;19.22;32.25
6851;BME280;3464;42.728;23.296;2023-02-02T11:25:03;95090.22;;;19.16;32.06
6851;BME280;3464;42.728;23.296;2023-02-02T11:27:39;95089.75;;;18.53;32.57
6851;BME280;3464;42.728;23.296;2023-02-02T11:30:20;95088.48;;;17.60;33.55
6851;BME280;3464;42.728;23.296;2023-02-02T11:32:38;95081.38;;;18.29;33.04
6851;BME280;3464;42.728;23.296;2023-02-02T11:35:15;95082.63;;;17.55;33.74
6851;BME280;3464;42.728;23.296;2023-02-02T11:37:53;95078.48;;;17.51;34.04
6851;BME280;3464;42.728;23.296;2023-02-02T11:46:57;95067.30;;;18.32;33.63
6851;BME280;3464;42.728;23.296;2023-02-02T11:52:37;95062.30;;;18.63;33.39
6851;BME280;3464;42.728;23.296;2023-02-02T12:08:18;95041.63;;;18.41;31.99
6851;BME280;3464;42.728;23.296;2023-02-02T12:11:00;95057.16;;;18.80;31.80
6851;BME280;3464;42.728;23.296;2023-02-02T12:16:47;95050.48;;;17.90;32.11
6851;BME280;3464;42.728;23.296;2023-02-02T12:19:26;95055.83;;;17.97;32.61
6851;BME280;3464;42.728;23.296;2023-02-02T12:21:58;95047.94;;;17.89;32.29
6851;BME280;3464;42.728;23.296;2023-02-02T12:24:26;95055.78;;;17.61;32.62
6851;BME280;3464;42.728;23.296;2023-02-02T12:26:57;95061.92;;;17.31;32.76
6851;BME280;3464;42.728;23.296;2023-02-02T12:29:34;95069.77;;;17.21;32.63
6851;BME280;3464;42.728;23.296;2023-02-02T12:34:44;95057.90;;;17.21;31.80
6851;BME280;3464;42.728;23.296;2023-02-02T12:40:15;95054.72;;;16.88;31.91
6851;BME280;3464;42.728;23.296;2023-02-02T12:43:05;95061.02;;;16.91;31.98
6851;BME280;3464;42.728;23.296;2023-02-02T12:51:14;95045.38;;;16.68;33.37
6851;BME280;3464;42.728;23.296;2023-02-02T12:53:55;95041.39;;;16.28;33.61
6851;BME280;3464;42.728;23.296;2023-02-02T12:56:14;95036.34;;;15.74;33.22
6851;BME280;3464;42.728;23.296;2023-02-02T12:58:40;95051.39;;;15.85;33.34
6851;BME280;3464;42.728;23.296;2023-02-02T13:01:21;95053.36;;;15.35;33.74
6851;BME280;3464;42.728;23.296;2023-02-02T13:04:10;95050.31;;;15.43;34.01
6851;BME280;3464;42.728;23.296;2023-02-02T13:06:59;95050.83;;;15.01;34.68
6851;BME280;3464;42.728;23.296;2023-02-02T13:09:27;95040.03;;;15.20;34.56
6851;BME280;3464;42.728;23.296;2023-02-02T13:11:52;95053.80;;;15.33;34.89
6851;BME280;3464;42.728;23.296;2023-02-02T13:14:35;95051.68;;;15.67;34.37
6851;BME280;3464;42.728;23.296;2023-02-02T13:17:10;95060.12;;;15.34;34.45
6851;BME280;3464;42.728;23.296;2023-02-02T13:19:39;95044.89;;;15.97;34.13
6851;BME280;3464;42.728;23.296;2023-02-02T13:22:05;95039.40;;;16.22;34.45
6851;BME280;3464;42.728;23.296;2023-02-02T13:24:38;95035.19;;;16.46;34.54
6851;BME280;3464;42.728;23.296;2023-02-02T13:27:05;95031.17;;;16.79;34.52
6851;BME280;3464;42.728;23.296;2023-02-02T13:29:33;95034.84;;;16.87;34.69
6851;BME280;3464;42.728;23.296;2023-02-02T13:32:03;95033.66;;;15.82;35.36
6851;BME280;3464;42.728;23.296;2023-02-02T13:34:44;95037.52;;;15.80;35.75
6851;BME280;3464;42.728;23.296;2023-02-02T13:37:17;95038.96;;;15.96;36.12
6851;BME280;3464;42.728;23.296;2023-02-02T13:40:00;95043.18;;;16.22;35.53
6851;BME280;3464;42.728;23.296;2023-02-02T13:42:37;95045.64;;;16.03;34.58
6851;BME280;3464;42.728;23.296;2023-02-02T13:45:14;95047.28;;;16.04;35.08
6851;BME280;3464;42.728;23.296;2023-02-02T13:47:39;95044.39;;;16.52;34.49
6851;BME280;3464;42.728;23.296;2023-02-02T13:50:05;95043.19;;;15.68;35.04
6851;BME280;3464;42.728;23.296;2023-02-02T13:55:35;95047.36;;;15.73;35.31
6851;BME280;3464;42.728;23.296;2023-02-02T14:00:49;95053.77;;;15.36;36.05
6851;BME280;3464;42.728;23.296;2023-02-02T14:03:36;95068.01;;;15.48;36.27
6851;BME280;3464;42.728;23.296;2023-02-02T14:06:11;95065.19;;;15.34;37.41
6851;BME280;3464;42.728;23.296;2023-02-02T14:08:36;95069.39;;;15.02;39.51
6851;BME280;3464;42.728;23.296;2023-02-02T14:11:04;95061.37;;;15.02;39.81
6851;BME280;3464;42.728;23.296;2023-02-02T14:13:36;95065.23;;;15.31;39.73
6851;BME280;3464;42.728;23.296;2023-02-02T14:16:10;95066.95;;;14.96;40.61
6851;BME280;3464;42.728;23.296;2023-02-02T14:18:58;95067.98;;;15.14;40.84
6851;BME280;3464;42.728;23.296;2023-02-02T14:21:56;95069.08;;;14.94;41.17
6851;BME280;3464;42.728;23.296;2023-02-02T14:26:56;95101.47;;;14.14;43.68
6851;BME280;3464;42.728;23.296;2023-02-02T14:29:58;95105.72;;;13.42;47.81
6851;BME280;3464;42.728;23.296;2023-02-02T14:32:29;95120.55;;;13.27;49.82
6851;BME280;3464;42.728;23.296;2023-02-02T14:34:59;95121.02;;;13.16;49.33
6851;BME280;3464;42.728;23.296;2023-02-02T14:37:35;95135.78;;;12.95;50.67
6851;BME280;3464;42.728;23.296;2023-02-02T14:40:18;95141.71;;;12.77;50.46
6851;BME280;3464;42.728;23.296;2023-02-02T14:42:58;95175.41;;;12.23;51.76
6851;BME280;3464;42.728;23.296;2023-02-02T14:45:30;95194.69;;;11.80;53.62
6851;BME280;3464;42.728;23.296;2023-02-02T14:47:59;95198.70;;;11.39;54.96
6851;BME280;3464;42.728;23.296;2023-02-02T14:50:43;95207.13;;;11.45;55.74
6851;BME280;3464;42.728;23.296;2023-02-02T14:53:20;95226.02;;;10.69;57.93
6851;BME280;3464;42.728;23.296;2023-02-02T14:55:58;95235.69;;;10.73;59.33
6851;BME280;3464;42.728;23.296;2023-02-02T14:58:42;95240.00;;;10.89;59.59
6851;BME280;3464;42.728;23.296;2023-02-02T15:01:25;95233.28;;;10.89;59.37
6851;BME280;3464;42.728;23.296;2023-02-02T15:03:56;95246.66;;;10.84;59.72
6851;BME280;3464;42.728;23.296;2023-02-02T15:14:11;95280.20;;;9.60;60.32
6851;BME280;3464;42.728;23.296;2023-02-02T15:16:38;95288.02;;;9.48;59.45
6851;BME280;3464;42.728;23.296;2023-02-02T15:19:11;95294.34;;;9.51;59.94
6851;BME280;3464;42.728;23.296;2023-02-02T15:21:34;95302.30;;;9.85;59.55
6851;BME280;3464;42.728;23.296;2023-02-02T15:24:01;95305.59;;;9.79;60.46
6851;BME280;3464;42.728;23.296;2023-02-02T15:26:30;95289.58;;;9.73;60.98
6851;BME280;3464;42.728;23.296;2023-02-02T15:28:57;95313.33;;;9.97;60.88
6851;BME280;3464;42.728;23.296;2023-02-02T15:31:45;95312.31;;;9.48;61.39
6851;BME280;3464;42.728;23.296;2023-02-02T15:34:14;95302.08;;;10.01;61.01
6851;BME280;3464;42.728;23.296;2023-02-02T15:36:40;95301.55;;;9.91;61.88
6851;BME280;3464;42.728;23.296;2023-02-02T15:41:44;95292.86;;;9.34;61.65
6851;BME280;3464;42.728;23.296;2023-02-02T15:44:24;95298.28;;;9.33;61.65
6851;BME280;3464;42.728;23.296;2023-02-02T15:46:47;95310.01;;;9.34;61.35
6851;BME280;3464;42.728;23.296;2023-02-02T15:49:23;95318.05;;;9.38;61.31
6851;BME280;3464;42.728;23.296;2023-02-02T15:51:49;95316.34;;;9.68;60.77
6851;BME280;3464;42.728;23.296;2023-02-02T15:54:25;95329.97;;;9.87;60.00
6851;BME280;3464;42.728;23.296;2023-02-02T15:56:50;95324.67;;;9.98;59.50
6851;BME280;3464;42.728;23.296;2023-02-02T15:59:19;95341.27;;;9.85;59.54
6851;BME280;3464;42.728;23.296;2023-02-02T16:01:47;95351.73;;;9.84;59.03
6851;BME280;3464;42.728;23.296;2023-02-02T16:04:33;95350.72;;;9.71;59.36
6851;BME280;3464;42.728;23.296;2023-02-02T16:10:22;95346.11;;;9.12;60.96
6851;BME280;3464;42.728;23.296;2023-02-02T16:13:20;95348.48;;;9.03;61.05
6851;BME280;3464;42.728;23.296;2023-02-02T16:15:53;95369.63;;;9.18;61.40
6851;BME280;3464;42.728;23.296;2023-02-02T16:18:14;95373.23;;;9.34;60.54
6851;BME280;3464;42.728;23.296;2023-02-02T16:20:49;95372.17;;;9.46;60.41
6851;BME280;3464;42.728;23.296;2023-02-02T16:32:37;95378.62;;;10.20;59.10
6851;BME280;3464;42.728;23.296;2023-02-02T16:38:29;95379.20;;;10.36;58.91
6851;BME280;3464;42.728;23.296;2023-02-02T16:41:05;95377.03;;;9.95;59.53
6851;BME280;3464;42.728;23.296;2023-02-02T16:43:31;95390.55;;;10.37;58.57
6851;BME280;3464;42.728;23.296;2023-02-02T16:46:06;95387.02;;;10.58;58.25
6851;BME280;3464;42.728;23.296;2023-02-02T16:51:37;95388.45;;;10.77;58.19
6851;BME280;3464;42.728;23.296;2023-02-02T16:54:20;95401.00;;;10.72;58.22
6851;BME280;3464;42.728;23.296;2023-02-02T16:56:59;95391.53;;;10.92;58.10
6851;BME280;3464;42.728;23.296;2023-02-02T16:59:40;95381.91;;;11.06;57.37